sensor_id;sensor_type;location;lat;lon;timestamp;temperature;humidity
54832;DHT22;40730;53.068;6.572;2022-12-29T00:01:16;10.10;99.90
54832;DHT22;40730;53.068;6.572;2022-12-29T00:03:41;10.10;99.90
54832;DHT22;40730;53.068;6.572;2022-12-29T00:06:07;10.10;99.90
54832;DHT22;40730;53.068;6.572;2022-12-29T00:08:32;10.00;99.90
54832;DHT22;40730;53.068;6.572;2022-12-29T00:11:15;9.90;99.90
54832;DHT22;40730;53.068;6.572;2022-12-29T00:13:42;9.90;99.90
54832;DHT22;40730;53.068;6.572;2022-12-29T00:16:27;9.90;99.90
54832;DHT22;40730;53.068;6.572;2022-12-29T00:18:53;9.90;99.90
54832;DHT22;40730;53.068;6.572;2022-12-29T00:21:21;9.90;99.90
54832;DHT22;40730;53.068;6.572;2022-12-29T00:24:08;9.90;99.90
54832;DHT22;40730;53.068;6.572;2022-12-29T00:29:45;9.90;99.90
54832;DHT22;40730;53.068;6.572;2022-12-29T00:32:30;9.90;99.90
54832;DHT22;40730;53.068;6.572;2022-12-29T00:35:22;9.90;99.90
54832;DHT22;40730;53.068;6.572;2022-12-29T00:37:48;9.90;99.90
54832;DHT22;40730;53.068;6.572;2022-12-29T00:40:33;10.00;99.90
54832;DHT22;40730;53.068;6.572;2022-12-29T00:43:17;10.00;99.90
54832;DHT22;40730;53.068;6.572;2022-12-29T00:46:02;10.10;99.90
54832;DHT22;40730;53.068;6.572;2022-12-29T00:48:27;10.20;99.90
54832;DHT22;40730;53.068;6.572;2022-12-29T00:51:11;10.20;99.90
54832;DHT22;40730;53.068;6.572;2022-12-29T00:53:37;10.20;99.90
54832;DHT22;40730;53.068;6.572;2022-12-29T00:56:02;10.20;99.90
54832;DHT22;40730;53.068;6.572;2022-12-29T00:58:29;10.20;99.90
54832;DHT22;40730;53.068;6.572;2022-12-29T01:01:06;10.20;99.90
54832;DHT22;40730;53.068;6.572;2022-12-29T01:03:33;10.30;99.90
54832;DHT22;40730;53.068;6.572;2022-12-29T01:06:03;10.40;99.90
54832;DHT22;40730;53.068;6.572;2022-12-29T01:08:29;10.30;99.90
54832;DHT22;40730;53.068;6.572;2022-12-29T01:11:12;10.30;99.90
54832;DHT22;40730;53.068;6.572;2022-12-29T01:13:38;10.30;99.90
54832;DHT22;40730;53.068;6.572;2022-12-29T01:16:05;10.30;99.90
54832;DHT22;40730;53.068;6.572;2022-12-29T01:18:31;10.30;99.90
54832;DHT22;40730;53.068;6.572;2022-12-29T01:21:02;10.30;99.90
54832;DHT22;40730;53.068;6.572;2022-12-29T01:23:28;10.40;99.90
54832;DHT22;40730;53.068;6.572;2022-12-29T01:25:54;10.40;99.90
54832;DHT22;40730;53.068;6.572;2022-12-29T01:28:20;10.40;99.90
54832;DHT22;40730;53.068;6.572;2022-12-29T01:30:46;10.40;99.90
54832;DHT22;40730;53.068;6.572;2022-12-29T01:33:12;10.40;99.90
54832;DHT22;40730;53.068;6.572;2022-12-29T01:35:37;10.40;99.90
54832;DHT22;40730;53.068;6.572;2022-12-29T01:38:03;10.40;99.90
54832;DHT22;40730;53.068;6.572;2022-12-29T01:40:28;10.40;99.90
54832;DHT22;40730;53.068;6.572;2022-12-29T01:42:54;10.40;99.90
54832;DHT22;40730;53.068;6.572;2022-12-29T01:45:20;10.40;99.90
54832;DHT22;40730;53.068;6.572;2022-12-29T01:47:57;10.30;99.90
54832;DHT22;40730;53.068;6.572;2022-12-29T01:50:31;10.30;99.90
54832;DHT22;40730;53.068;6.572;2022-12-29T01:53:03;10.30;99.90
54832;DHT22;40730;53.068;6.572;2022-12-29T01:55:34;10.20;99.90
54832;DHT22;40730;53.068;6.572;2022-12-29T01:58:04;10.20;99.90
54832;DHT22;40730;53.068;6.572;2022-12-29T02:00:31;10.20;99.90
54832;DHT22;40730;53.068;6.572;2022-12-29T02:02:56;10.20;99.90
54832;DHT22;40730;53.068;6.572;2022-12-29T02:05:27;10.30;99.90
54832;DHT22;40730;53.068;6.572;2022-12-29T02:07:53;10.30;99.90
54832;DHT22;40730;53.068;6.572;2022-12-29T02:10:21;10.40;99.90
54832;DHT22;40730;53.068;6.572;2022-12-29T02:12:48;10.30;99.90
54832;DHT22;40730;53.068;6.572;2022-12-29T02:15:14;10.30;99.90
54832;DHT22;40730;53.068;6.572;2022-12-29T02:17:53;10.40;99.90
54832;DHT22;40730;53.068;6.572;2022-12-29T02:31:52;10.30;99.90
54832;DHT22;40730;53.068;6.572;2022-12-29T02:34:44;10.30;99.90
54832;DHT22;40730;53.068;6.572;2022-12-29T02:37:33;10.20;99.90
54832;DHT22;40730;53.068;6.572;2022-12-29T02:40:38;10.10;99.90
54832;DHT22;40730;53.068;6.572;2022-12-29T02:45:53;10.10;99.90
54832;DHT22;40730;53.068;6.572;2022-12-29T02:48:34;10.00;99.90
54832;DHT22;40730;53.068;6.572;2022-12-29T02:51:04;10.00;99.90
54832;DHT22;40730;53.068;6.572;2022-12-29T02:53:32;10.00;99.90
54832;DHT22;40730;53.068;6.572;2022-12-29T02:56:17;10.00;99.90
54832;DHT22;40730;53.068;6.572;2022-12-29T02:58:43;10.20;99.90
54832;DHT22;40730;53.068;6.572;2022-12-29T03:01:34;10.10;99.90
54832;DHT22;40730;53.068;6.572;2022-12-29T03:04:22;10.10;99.90
54832;DHT22;40730;53.068;6.572;2022-12-29T03:07:04;10.10;99.90
54832;DHT22;40730;53.068;6.572;2022-12-29T03:09:36;10.10;99.90
54832;DHT22;40730;53.068;6.572;2022-12-29T03:15:29;10.10;99.90
54832;DHT22;40730;53.068;6.572;2022-12-29T03:18:39;10.10;99.90
54832;DHT22;40730;53.068;6.572;2022-12-29T03:21:30;10.00;99.90
54832;DHT22;40730;53.068;6.572;2022-12-29T03:24:18;10.00;99.90
54832;DHT22;40730;53.068;6.572;2022-12-29T03:26:45;10.00;99.90
54832;DHT22;40730;53.068;6.572;2022-12-29T03:29:12;10.00;99.90
54832;DHT22;40730;53.068;6.572;2022-12-29T03:31:40;9.90;99.90
54832;DHT22;40730;53.068;6.572;2022-12-29T03:34:08;9.90;99.90
54832;DHT22;40730;53.068;6.572;2022-12-29T03:36:49;9.90;99.90
54832;DHT22;40730;53.068;6.572;2022-12-29T03:39:17;9.90;99.90
54832;DHT22;40730;53.068;6.572;2022-12-29T03:41:44;9.90;99.90
54832;DHT22;40730;53.068;6.572;2022-12-29T03:44:12;9.90;99.90
54832;DHT22;40730;53.068;6.572;2022-12-29T03:46:38;9.90;99.90
54832;DHT22;40730;53.068;6.572;2022-12-29T03:49:03;9.90;99.90
54832;DHT22;40730;53.068;6.572;2022-12-29T03:51:29;9.90;99.90
54832;DHT22;40730;53.068;6.572;2022-12-29T03:53:55;10.20;99.90
54832;DHT22;40730;53.068;6.572;2022-12-29T03:56:20;10.00;99.90
54832;DHT22;40730;53.068;6.572;2022-12-29T03:58:46;10.00;99.90
54832;DHT22;40730;53.068;6.572;2022-12-29T04:01:12;9.90;99.90
54832;DHT22;40730;53.068;6.572;2022-12-29T04:03:37;9.90;99.90
54832;DHT22;40730;53.068;6.572;2022-12-29T04:06:03;9.90;99.90
54832;DHT22;40730;53.068;6.572;2022-12-29T04:08:29;9.90;99.90
54832;DHT22;40730;53.068;6.572;2022-12-29T04:10:55;9.90;99.90
54832;DHT22;40730;53.068;6.572;2022-12-29T04:13:20;9.90;99.90
54832;DHT22;40730;53.068;6.572;2022-12-29T04:15:46;9.90;99.90
54832;DHT22;40730;53.068;6.572;2022-12-29T04:18:12;9.90;99.90
54832;DHT22;40730;53.068;6.572;2022-12-29T04:20:38;9.90;99.90
54832;DHT22;40730;53.068;6.572;2022-12-29T04:23:22;10.40;99.90
54832;DHT22;40730;53.068;6.572;2022-12-29T04:25:48;10.00;99.90
54832;DHT22;40730;53.068;6.572;2022-12-29T04:28:14;10.00;99.90
54832;DHT22;40730;53.068;6.572;2022-12-29T04:30:40;10.00;99.90
54832;DHT22;40730;53.068;6.572;2022-12-29T04:33:06;10.00;99.90
54832;DHT22;40730;53.068;6.572;2022-12-29T04:35:31;10.00;99.90
54832;DHT22;40730;53.068;6.572;2022-12-29T04:37:57;10.00;99.90
54832;DHT22;40730;53.068;6.572;2022-12-29T04:40:23;10.10;99.90
54832;DHT22;40730;53.068;6.572;2022-12-29T04:42:49;10.10;99.90
54832;DHT22;40730;53.068;6.572;2022-12-29T04:45:15;10.10;99.90
54832;DHT22;40730;53.068;6.572;2022-12-29T04:47:41;10.10;99.90
54832;DHT22;40730;53.068;6.572;2022-12-29T04:50:07;10.10;99.90
54832;DHT22;40730;53.068;6.572;2022-12-29T04:52:33;10.00;99.90
54832;DHT22;40730;53.068;6.572;2022-12-29T04:54:59;10.00;99.90
54832;DHT22;40730;53.068;6.572;2022-12-29T04:57:24;10.00;99.90
54832;DHT22;40730;53.068;6.572;2022-12-29T04:59:50;9.90;99.90
54832;DHT22;40730;53.068;6.572;2022-12-29T05:02:16;9.90;99.90
54832;DHT22;40730;53.068;6.572;2022-12-29T05:04:42;9.90;99.90
54832;DHT22;40730;53.068;6.572;2022-12-29T05:07:08;9.80;99.90
54832;DHT22;40730;53.068;6.572;2022-12-29T05:09:33;9.70;99.90
54832;DHT22;40730;53.068;6.572;2022-12-29T05:11:59;9.60;99.90
54832;DHT22;40730;53.068;6.572;2022-12-29T05:14:25;9.50;99.90
54832;DHT22;40730;53.068;6.572;2022-12-29T05:16:50;9.60;99.90
54832;DHT22;40730;53.068;6.572;2022-12-29T05:19:16;9.40;99.90
54832;DHT22;40730;53.068;6.572;2022-12-29T05:21:42;9.40;99.90
54832;DHT22;40730;53.068;6.572;2022-12-29T05:24:08;9.30;99.90
54832;DHT22;40730;53.068;6.572;2022-12-29T05:26:33;9.30;99.90
54832;DHT22;40730;53.068;6.572;2022-12-29T05:28:59;9.30;99.90
54832;DHT22;40730;53.068;6.572;2022-12-29T05:31:25;9.30;99.90
54832;DHT22;40730;53.068;6.572;2022-12-29T05:33:51;9.30;99.90
54832;DHT22;40730;53.068;6.572;2022-12-29T05:36:17;9.30;99.90
54832;DHT22;40730;53.068;6.572;2022-12-29T05:38:43;9.20;99.90
54832;DHT22;40730;53.068;6.572;2022-12-29T05:41:09;9.20;99.90
54832;DHT22;40730;53.068;6.572;2022-12-29T05:43:35;9.10;99.90
54832;DHT22;40730;53.068;6.572;2022-12-29T05:46:00;9.20;99.90
54832;DHT22;40730;53.068;6.572;2022-12-29T05:48:26;9.20;99.90
54832;DHT22;40730;53.068;6.572;2022-12-29T05:50:52;9.20;99.90
54832;DHT22;40730;53.068;6.572;2022-12-29T05:53:17;9.10;99.90
54832;DHT22;40730;53.068;6.572;2022-12-29T05:55:46;9.10;99.90
54832;DHT22;40730;53.068;6.572;2022-12-29T05:58:11;9.10;99.90
54832;DHT22;40730;53.068;6.572;2022-12-29T06:00:37;9.10;99.90
54832;DHT22;40730;53.068;6.572;2022-12-29T06:03:03;9.50;99.90
54832;DHT22;40730;53.068;6.572;2022-12-29T06:05:29;9.20;99.90
54832;DHT22;40730;53.068;6.572;2022-12-29T06:07:54;9.10;99.90
54832;DHT22;40730;53.068;6.572;2022-12-29T06:10:20;9.70;99.90
54832;DHT22;40730;53.068;6.572;2022-12-29T06:12:46;9.20;99.90
54832;DHT22;40730;53.068;6.572;2022-12-29T06:15:12;9.10;99.90
54832;DHT22;40730;53.068;6.572;2022-12-29T06:17:39;9.10;99.90
54832;DHT22;40730;53.068;6.572;2022-12-29T06:20:05;9.00;99.90
54832;DHT22;40730;53.068;6.572;2022-12-29T06:22:30;9.10;99.90
54832;DHT22;40730;53.068;6.572;2022-12-29T06:24:56;9.10;99.90
54832;DHT22;40730;53.068;6.572;2022-12-29T06:27:22;9.20;99.90
54832;DHT22;40730;53.068;6.572;2022-12-29T06:29:47;9.20;99.90
54832;DHT22;40730;53.068;6.572;2022-12-29T06:32:13;9.20;99.90
54832;DHT22;40730;53.068;6.572;2022-12-29T06:34:39;9.20;99.90
54832;DHT22;40730;53.068;6.572;2022-12-29T06:37:04;9.20;99.90
54832;DHT22;40730;53.068;6.572;2022-12-29T06:39:30;9.20;99.90
54832;DHT22;40730;53.068;6.572;2022-12-29T06:41:55;9.20;99.90
54832;DHT22;40730;53.068;6.572;2022-12-29T06:44:21;9.10;99.90
54832;DHT22;40730;53.068;6.572;2022-12-29T06:46:48;9.20;99.90
54832;DHT22;40730;53.068;6.572;2022-12-29T06:49:13;9.10;99.90
54832;DHT22;40730;53.068;6.572;2022-12-29T06:51:39;9.20;99.90
54832;DHT22;40730;53.068;6.572;2022-12-29T06:54:05;9.20;99.90
54832;DHT22;40730;53.068;6.572;2022-12-29T06:56:31;9.20;99.90
54832;DHT22;40730;53.068;6.572;2022-12-29T06:58:56;9.20;99.90
54832;DHT22;40730;53.068;6.572;2022-12-29T07:01:22;9.10;99.90
54832;DHT22;40730;53.068;6.572;2022-12-29T07:03:48;9.10;99.90
54832;DHT22;40730;53.068;6.572;2022-12-29T07:06:13;9.10;99.90
54832;DHT22;40730;53.068;6.572;2022-12-29T07:08:39;9.10;99.90
54832;DHT22;40730;53.068;6.572;2022-12-29T07:11:05;9.20;99.90
54832;DHT22;40730;53.068;6.572;2022-12-29T07:13:31;9.20;99.90
54832;DHT22;40730;53.068;6.572;2022-12-29T07:15:56;9.20;99.90
54832;DHT22;40730;53.068;6.572;2022-12-29T07:18:22;9.20;99.90
54832;DHT22;40730;53.068;6.572;2022-12-29T07:20:47;9.20;99.90
54832;DHT22;40730;53.068;6.572;2022-12-29T07:23:13;9.30;99.90
54832;DHT22;40730;53.068;6.572;2022-12-29T07:25:39;9.30;99.90
54832;DHT22;40730;53.068;6.572;2022-12-29T07:28:06;9.40;99.90
54832;DHT22;40730;53.068;6.572;2022-12-29T07:30:32;9.40;99.90
54832;DHT22;40730;53.068;6.572;2022-12-29T07:32:58;9.40;99.90
54832;DHT22;40730;53.068;6.572;2022-12-29T07:35:24;9.40;99.90
54832;DHT22;40730;53.068;6.572;2022-12-29T07:37:49;9.40;99.90
54832;DHT22;40730;53.068;6.572;2022-12-29T07:40:15;9.40;99.90
54832;DHT22;40730;53.068;6.572;2022-12-29T07:42:41;9.40;99.90
54832;DHT22;40730;53.068;6.572;2022-12-29T07:45:07;9.50;99.90
54832;DHT22;40730;53.068;6.572;2022-12-29T07:47:34;9.50;99.90
54832;DHT22;40730;53.068;6.572;2022-12-29T07:50:00;9.50;99.90
54832;DHT22;40730;53.068;6.572;2022-12-29T07:52:25;9.50;99.90
54832;DHT22;40730;53.068;6.572;2022-12-29T07:54:51;9.50;99.90
54832;DHT22;40730;53.068;6.572;2022-12-29T07:57:17;9.50;99.90
54832;DHT22;40730;53.068;6.572;2022-12-29T07:59:42;9.50;99.90
54832;DHT22;40730;53.068;6.572;2022-12-29T08:02:11;9.60;99.90
54832;DHT22;40730;53.068;6.572;2022-12-29T08:04:37;9.70;99.90
54832;DHT22;40730;53.068;6.572;2022-12-29T08:07:02;9.50;99.90
54832;DHT22;40730;53.068;6.572;2022-12-29T08:09:28;9.50;99.90
54832;DHT22;40730;53.068;6.572;2022-12-29T08:11:54;9.50;99.90
54832;DHT22;40730;53.068;6.572;2022-12-29T08:14:20;9.50;99.90
54832;DHT22;40730;53.068;6.572;2022-12-29T08:16:46;9.50;99.90
54832;DHT22;40730;53.068;6.572;2022-12-29T08:19:12;9.50;99.90
54832;DHT22;40730;53.068;6.572;2022-12-29T08:21:38;9.50;99.90
54832;DHT22;40730;53.068;6.572;2022-12-29T08:24:04;9.50;99.90
54832;DHT22;40730;53.068;6.572;2022-12-29T08:26:30;9.50;99.90
54832;DHT22;40730;53.068;6.572;2022-12-29T08:28:55;9.50;99.90
54832;DHT22;40730;53.068;6.572;2022-12-29T08:31:22;9.50;99.90
54832;DHT22;40730;53.068;6.572;2022-12-29T08:33:48;9.50;99.90
54832;DHT22;40730;53.068;6.572;2022-12-29T08:36:14;9.50;99.90
54832;DHT22;40730;53.068;6.572;2022-12-29T08:38:39;9.50;99.90
54832;DHT22;40730;53.068;6.572;2022-12-29T08:41:05;9.50;99.90
54832;DHT22;40730;53.068;6.572;2022-12-29T08:43:31;9.50;99.90
54832;DHT22;40730;53.068;6.572;2022-12-29T08:46:00;9.50;99.90
54832;DHT22;40730;53.068;6.572;2022-12-29T08:48:26;9.60;99.90
54832;DHT22;40730;53.068;6.572;2022-12-29T08:50:51;9.50;99.90
54832;DHT22;40730;53.068;6.572;2022-12-29T08:53:17;9.50;99.90
54832;DHT22;40730;53.068;6.572;2022-12-29T08:55:45;9.60;99.90
54832;DHT22;40730;53.068;6.572;2022-12-29T08:58:11;9.60;99.90
54832;DHT22;40730;53.068;6.572;2022-12-29T09:00:40;9.60;99.90
54832;DHT22;40730;53.068;6.572;2022-12-29T09:03:06;9.60;99.90
54832;DHT22;40730;53.068;6.572;2022-12-29T09:05:32;9.60;99.90
54832;DHT22;40730;53.068;6.572;2022-12-29T09:07:57;9.40;99.90
54832;DHT22;40730;53.068;6.572;2022-12-29T09:10:23;9.40;99.90
54832;DHT22;40730;53.068;6.572;2022-12-29T09:12:49;9.40;99.90
54832;DHT22;40730;53.068;6.572;2022-12-29T09:15:14;9.40;99.90
54832;DHT22;40730;53.068;6.572;2022-12-29T09:17:41;9.30;99.90
54832;DHT22;40730;53.068;6.572;2022-12-29T09:20:18;9.30;99.90
54832;DHT22;40730;53.068;6.572;2022-12-29T09:22:44;9.30;99.90
54832;DHT22;40730;53.068;6.572;2022-12-29T09:25:10;9.20;99.90
54832;DHT22;40730;53.068;6.572;2022-12-29T09:27:37;9.10;99.90
54832;DHT22;40730;53.068;6.572;2022-12-29T09:30:04;9.00;99.90
54832;DHT22;40730;53.068;6.572;2022-12-29T09:32:31;8.90;99.90
54832;DHT22;40730;53.068;6.572;2022-12-29T09:34:57;8.80;99.90
54832;DHT22;40730;53.068;6.572;2022-12-29T09:37:22;8.80;99.90
54832;DHT22;40730;53.068;6.572;2022-12-29T09:39:48;8.80;99.90
54832;DHT22;40730;53.068;6.572;2022-12-29T09:45:00;8.80;99.90
54832;DHT22;40730;53.068;6.572;2022-12-29T09:47:29;8.80;99.90
54832;DHT22;40730;53.068;6.572;2022-12-29T09:50:26;8.80;99.90
54832;DHT22;40730;53.068;6.572;2022-12-29T09:53:25;8.90;99.90
54832;DHT22;40730;53.068;6.572;2022-12-29T09:55:55;8.90;99.90
54832;DHT22;40730;53.068;6.572;2022-12-29T10:01:23;9.10;99.90
54832;DHT22;40730;53.068;6.572;2022-12-29T10:03:51;9.00;99.90
54832;DHT22;40730;53.068;6.572;2022-12-29T10:06:46;8.90;99.90
54832;DHT22;40730;53.068;6.572;2022-12-29T10:09:17;8.90;99.90
54832;DHT22;40730;53.068;6.572;2022-12-29T10:17:37;8.80;99.90
54832;DHT22;40730;53.068;6.572;2022-12-29T10:20:19;8.80;99.90
54832;DHT22;40730;53.068;6.572;2022-12-29T10:25:20;8.80;99.90
54832;DHT22;40730;53.068;6.572;2022-12-29T10:27:50;8.80;99.90
54832;DHT22;40730;53.068;6.572;2022-12-29T10:30:17;8.70;99.90
54832;DHT22;40730;53.068;6.572;2022-12-29T10:37:47;8.60;99.90
54832;DHT22;40730;53.068;6.572;2022-12-29T10:40:43;8.60;99.90
54832;DHT22;40730;53.068;6.572;2022-12-29T10:43:21;8.60;99.90
54832;DHT22;40730;53.068;6.572;2022-12-29T10:45:49;8.70;99.90
54832;DHT22;40730;53.068;6.572;2022-12-29T10:48:21;8.60;99.90
54832;DHT22;40730;53.068;6.572;2022-12-29T10:50:48;8.70;99.90
54832;DHT22;40730;53.068;6.572;2022-12-29T10:53:20;8.70;99.90
54832;DHT22;40730;53.068;6.572;2022-12-29T10:55:47;8.70;99.90
54832;DHT22;40730;53.068;6.572;2022-12-29T10:58:14;8.70;99.90
54832;DHT22;40730;53.068;6.572;2022-12-29T11:00:41;8.70;99.90
54832;DHT22;40730;53.068;6.572;2022-12-29T11:03:41;8.70;99.90
54832;DHT22;40730;53.068;6.572;2022-12-29T11:06:18;8.80;99.90
54832;DHT22;40730;53.068;6.572;2022-12-29T11:09:12;8.80;99.90
54832;DHT22;40730;53.068;6.572;2022-12-29T11:11:38;8.80;99.90
54832;DHT22;40730;53.068;6.572;2022-12-29T11:14:18;8.80;99.90
54832;DHT22;40730;53.068;6.572;2022-12-29T11:17:01;8.80;99.90
54832;DHT22;40730;53.068;6.572;2022-12-29T11:19:30;8.80;99.90
54832;DHT22;40730;53.068;6.572;2022-12-29T11:22:24;8.70;99.90
54832;DHT22;40730;53.068;6.572;2022-12-29T11:24:52;8.80;99.90
54832;DHT22;40730;53.068;6.572;2022-12-29T11:27:23;8.80;99.90
54832;DHT22;40730;53.068;6.572;2022-12-29T11:29:51;8.90;99.90
54832;DHT22;40730;53.068;6.572;2022-12-29T11:34:44;9.10;99.90
54832;DHT22;40730;53.068;6.572;2022-12-29T11:39:45;9.20;99.90
54832;DHT22;40730;53.068;6.572;2022-12-29T11:42:16;9.20;99.90
54832;DHT22;40730;53.068;6.572;2022-12-29T11:44:45;9.30;99.90
54832;DHT22;40730;53.068;6.572;2022-12-29T11:47:30;9.40;99.90
54832;DHT22;40730;53.068;6.572;2022-12-29T11:50:00;9.70;99.90
54832;DHT22;40730;53.068;6.572;2022-12-29T11:52:30;10.00;99.90
54832;DHT22;40730;53.068;6.572;2022-12-29T11:54:59;10.00;99.90
54832;DHT22;40730;53.068;6.572;2022-12-29T11:57:26;10.30;99.90
54832;DHT22;40730;53.068;6.572;2022-12-29T11:59:54;10.10;99.90
54832;DHT22;40730;53.068;6.572;2022-12-29T12:05:26;10.10;99.90
54832;DHT22;40730;53.068;6.572;2022-12-29T12:10:41;10.10;99.90
54832;DHT22;40730;53.068;6.572;2022-12-29T12:13:29;10.40;99.90
54832;DHT22;40730;53.068;6.572;2022-12-29T12:16:09;9.90;99.90
54832;DHT22;40730;53.068;6.572;2022-12-29T12:18:57;9.90;99.90
54832;DHT22;40730;53.068;6.572;2022-12-29T12:21:40;10.10;99.90
54832;DHT22;40730;53.068;6.572;2022-12-29T12:24:19;10.10;99.90
54832;DHT22;40730;53.068;6.572;2022-12-29T12:29:26;10.40;99.90
54832;DHT22;40730;53.068;6.572;2022-12-29T12:31:59;10.60;99.90
54832;DHT22;40730;53.068;6.572;2022-12-29T12:34:46;10.70;99.90
54832;DHT22;40730;53.068;6.572;2022-12-29T12:43:19;11.00;99.90
54832;DHT22;40730;53.068;6.572;2022-12-29T12:45:55;10.90;99.90
54832;DHT22;40730;53.068;6.572;2022-12-29T12:54:54;11.00;99.90
54832;DHT22;40730;53.068;6.572;2022-12-29T13:00:15;10.70;99.90
54832;DHT22;40730;53.068;6.572;2022-12-29T13:08:38;10.60;99.90
54832;DHT22;40730;53.068;6.572;2022-12-29T13:19:22;10.20;99.90
54832;DHT22;40730;53.068;6.572;2022-12-29T13:21:58;10.10;99.90
54832;DHT22;40730;53.068;6.572;2022-12-29T13:29:52;9.80;99.90
54832;DHT22;40730;53.068;6.572;2022-12-29T13:32:40;9.70;99.90
54832;DHT22;40730;53.068;6.572;2022-12-29T13:37:39;9.60;99.90
54832;DHT22;40730;53.068;6.572;2022-12-29T13:40:15;9.50;99.90
54832;DHT22;40730;53.068;6.572;2022-12-29T13:42:43;9.40;99.90
54832;DHT22;40730;53.068;6.572;2022-12-29T13:45:16;9.40;99.90
54832;DHT22;40730;53.068;6.572;2022-12-29T13:47:48;9.40;99.90
54832;DHT22;40730;53.068;6.572;2022-12-29T13:50:22;9.40;99.90
54832;DHT22;40730;53.068;6.572;2022-12-29T13:55:51;9.50;99.90
54832;DHT22;40730;53.068;6.572;2022-12-29T14:06:34;9.40;99.90
54832;DHT22;40730;53.068;6.572;2022-12-29T14:09:04;9.30;99.90
54832;DHT22;40730;53.068;6.572;2022-12-29T14:11:35;9.30;99.90
54832;DHT22;40730;53.068;6.572;2022-12-29T14:14:31;9.20;99.90
54832;DHT22;40730;53.068;6.572;2022-12-29T14:17:11;9.10;99.90
54832;DHT22;40730;53.068;6.572;2022-12-29T14:19:40;9.00;99.90
54832;DHT22;40730;53.068;6.572;2022-12-29T14:22:07;8.90;99.90
54832;DHT22;40730;53.068;6.572;2022-12-29T14:34:48;8.80;99.90
54832;DHT22;40730;53.068;6.572;2022-12-29T14:37:35;8.80;99.90
54832;DHT22;40730;53.068;6.572;2022-12-29T14:42:49;8.70;99.90
54832;DHT22;40730;53.068;6.572;2022-12-29T14:47:48;8.70;99.90
54832;DHT22;40730;53.068;6.572;2022-12-29T14:50:17;8.70;99.90
54832;DHT22;40730;53.068;6.572;2022-12-29T14:53:00;8.70;99.90
54832;DHT22;40730;53.068;6.572;2022-12-29T14:55:46;8.60;99.90
54832;DHT22;40730;53.068;6.572;2022-12-29T14:58:29;8.50;99.90
54832;DHT22;40730;53.068;6.572;2022-12-29T15:00:55;8.50;99.90
54832;DHT22;40730;53.068;6.572;2022-12-29T15:03:44;8.40;99.90
54832;DHT22;40730;53.068;6.572;2022-12-29T15:06:15;8.40;99.90
54832;DHT22;40730;53.068;6.572;2022-12-29T15:11:17;8.20;99.90
54832;DHT22;40730;53.068;6.572;2022-12-29T15:13:44;8.50;99.90
54832;DHT22;40730;53.068;6.572;2022-12-29T15:16:26;8.20;99.90
54832;DHT22;40730;53.068;6.572;2022-12-29T15:18:54;8.20;99.90
54832;DHT22;40730;53.068;6.572;2022-12-29T15:21:31;8.10;99.90
54832;DHT22;40730;53.068;6.572;2022-12-29T15:23:57;8.10;99.90
54832;DHT22;40730;53.068;6.572;2022-12-29T15:26:23;8.10;99.90
54832;DHT22;40730;53.068;6.572;2022-12-29T15:29:01;8.10;99.90
54832;DHT22;40730;53.068;6.572;2022-12-29T15:31:27;8.00;99.90
54832;DHT22;40730;53.068;6.572;2022-12-29T15:34:00;8.00;99.90
54832;DHT22;40730;53.068;6.572;2022-12-29T15:36:28;8.00;99.90
54832;DHT22;40730;53.068;6.572;2022-12-29T15:38:54;8.00;99.90
54832;DHT22;40730;53.068;6.572;2022-12-29T15:41:46;7.90;99.90
54832;DHT22;40730;53.068;6.572;2022-12-29T15:44:29;7.90;99.90
54832;DHT22;40730;53.068;6.572;2022-12-29T15:47:02;7.90;99.90
54832;DHT22;40730;53.068;6.572;2022-12-29T15:49:28;7.90;99.90
54832;DHT22;40730;53.068;6.572;2022-12-29T15:51:54;8.30;99.90
54832;DHT22;40730;53.068;6.572;2022-12-29T15:54:21;7.80;99.90
54832;DHT22;40730;53.068;6.572;2022-12-29T15:56:48;7.80;99.90
54832;DHT22;40730;53.068;6.572;2022-12-29T16:01:51;7.80;99.90
54832;DHT22;40730;53.068;6.572;2022-12-29T16:04:17;7.80;99.90
54832;DHT22;40730;53.068;6.572;2022-12-29T16:06:53;7.80;99.90
54832;DHT22;40730;53.068;6.572;2022-12-29T16:09:35;7.90;99.90
54832;DHT22;40730;53.068;6.572;2022-12-29T16:12:06;7.90;99.90
54832;DHT22;40730;53.068;6.572;2022-12-29T16:14:57;7.90;99.90
54832;DHT22;40730;53.068;6.572;2022-12-29T16:17:30;7.90;99.90
54832;DHT22;40730;53.068;6.572;2022-12-29T16:22:32;7.90;99.90
54832;DHT22;40730;53.068;6.572;2022-12-29T16:25:00;8.00;99.90
54832;DHT22;40730;53.068;6.572;2022-12-29T16:27:37;8.00;99.90
54832;DHT22;40730;53.068;6.572;2022-12-29T16:30:16;8.00;99.90
54832;DHT22;40730;53.068;6.572;2022-12-29T16:32:47;8.10;99.90
54832;DHT22;40730;53.068;6.572;2022-12-29T16:35:27;8.20;99.90
54832;DHT22;40730;53.068;6.572;2022-12-29T16:38:22;8.20;99.90
54832;DHT22;40730;53.068;6.572;2022-12-29T16:40:54;8.20;99.90
54832;DHT22;40730;53.068;6.572;2022-12-29T16:43:30;8.30;99.90
54832;DHT22;40730;53.068;6.572;2022-12-29T16:48:30;8.20;99.90
54832;DHT22;40730;53.068;6.572;2022-12-29T16:51:13;8.10;99.90
54832;DHT22;40730;53.068;6.572;2022-12-29T16:53:41;7.80;99.90
54832;DHT22;40730;53.068;6.572;2022-12-29T16:56:28;7.70;99.90
54832;DHT22;40730;53.068;6.572;2022-12-29T17:01:41;7.60;99.90
54832;DHT22;40730;53.068;6.572;2022-12-29T17:04:11;7.60;99.90
54832;DHT22;40730;53.068;6.572;2022-12-29T17:06:38;7.60;99.90
54832;DHT22;40730;53.068;6.572;2022-12-29T17:09:24;7.70;99.90
54832;DHT22;40730;53.068;6.572;2022-12-29T17:11:52;7.80;99.90
54832;DHT22;40730;53.068;6.572;2022-12-29T17:17:23;7.80;99.90
54832;DHT22;40730;53.068;6.572;2022-12-29T17:19:54;7.80;99.90
54832;DHT22;40730;53.068;6.572;2022-12-29T17:22:27;7.80;99.90
54832;DHT22;40730;53.068;6.572;2022-12-29T17:24:55;7.70;99.90
54832;DHT22;40730;53.068;6.572;2022-12-29T17:30:24;7.60;99.90
54832;DHT22;40730;53.068;6.572;2022-12-29T17:32:51;7.60;99.90
54832;DHT22;40730;53.068;6.572;2022-12-29T17:35:19;7.60;99.90
54832;DHT22;40730;53.068;6.572;2022-12-29T17:37:46;7.50;99.90
54832;DHT22;40730;53.068;6.572;2022-12-29T17:40:16;7.50;99.90
54832;DHT22;40730;53.068;6.572;2022-12-29T17:42:45;7.40;99.90
54832;DHT22;40730;53.068;6.572;2022-12-29T17:45:16;7.40;99.90
54832;DHT22;40730;53.068;6.572;2022-12-29T17:47:43;7.40;99.90
54832;DHT22;40730;53.068;6.572;2022-12-29T17:50:20;7.40;99.90
54832;DHT22;40730;53.068;6.572;2022-12-29T17:52:55;7.40;99.90
54832;DHT22;40730;53.068;6.572;2022-12-29T17:55:23;7.30;99.90
54832;DHT22;40730;53.068;6.572;2022-12-29T17:57:49;7.30;99.90
54832;DHT22;40730;53.068;6.572;2022-12-29T18:00:16;7.30;99.90
54832;DHT22;40730;53.068;6.572;2022-12-29T18:02:42;7.30;99.90
54832;DHT22;40730;53.068;6.572;2022-12-29T18:05:19;7.30;99.90
54832;DHT22;40730;53.068;6.572;2022-12-29T18:07:45;7.20;99.90
54832;DHT22;40730;53.068;6.572;2022-12-29T18:10:12;7.30;99.90
54832;DHT22;40730;53.068;6.572;2022-12-29T18:12:40;7.20;99.90
54832;DHT22;40730;53.068;6.572;2022-12-29T18:15:15;7.20;99.90
54832;DHT22;40730;53.068;6.572;2022-12-29T18:17:41;7.20;99.90
54832;DHT22;40730;53.068;6.572;2022-12-29T18:20:07;7.10;99.90